Rouyn, Canada
Current Conditions -  °F | °C
As of 1:00 AM on Friday 28 Nov 2014 (Local Time) from CYUY Reporting Station
Light Snow Light Snow  
Wind Chill: -10°   Ceiling: 22000
Heat Index:   Visibility: 10mi
Dew Point: -4°   Wind: 5mph
Humidity: 85%   Direction: 10°N
Pressure: 30.14"   Gusts: NA
Location:  48.23°N, 79.03°W
Report Text: CYUY 280600Z 01004KT 10SM -SN FEW060 BKN220 M18/M20 A3014 RMK SC2CI3 SLP236
Loading
Personal Weather Stations






























Interactive Weather Map New forecast layout! Learn more

10-Day Weather Forecast

Advertisements
Track Severe Weather on mobile